Time,TemperatureF,DewpointF,PressureIn,WindDirection,WindDirectionDegrees,WindSpeedMPH,WindSpeedGustMPH,Humidity,HourlyPrecipIn,Conditions,Clouds,dailyrainin,SoftwareType,DateUTC
2013-02-19 00:01:00,12.6,-5.2,30.20,NNW,337,6.9,6.9,44,0.00,CLR,,0.00,WeatherDisplay:10.37,2013-02-19 07:01:00,
2013-02-19 00:06:00,12.6,-5.7,30.20,North,351,6.0,6.0,43,0.00,CLR,,0.00,WeatherDisplay:10.37,2013-02-19 07:06:00,
2013-02-19 00:11:00,12.6,-5.7,30.20,North,352,4.6,4.6,43,0.00,CLR,,0.00,WeatherDisplay:10.37,2013-02-19 07:11:00,
2013-02-19 00:16:00,12.6,-5.7,30.18,NE,46,5.8,5.8,43,0.00,CLR,,0.00,WeatherDisplay:10.37,2013-02-19 07:16:00,
2013-02-19 00:21:00,12.4,-4.9,30.18,NNW,341,6.0,6.0,45,0.00,CLR,,0.00,WeatherDisplay:10.37,2013-02-19 07:21:00,
2013-02-19 00:26:00,12.3,-5.0,30.18,NNE,33,6.9,6.9,45,0.00,CLR,,0.00,WeatherDisplay:10.37,2013-02-19 07:26:00,
2013-02-19 00:31:00,11.9,-5.9,30.20,ENE,57,4.6,4.6,44,0.00,CLR,,0.00,WeatherDisplay:10.37,2013-02-19 07:31:00,
2013-02-19 00:36:00,10.9,-6.8,30.20,NE,42,7.0,7.0,44,0.00,CLR,,0.00,WeatherDisplay:10.37,2013-02-19 07:36:00,
2013-02-19 00:41:00,10.4,-7.2,30.20,NE,38,10.4,10.4,44,0.00,CLR,,0.00,WeatherDisplay:10.37,2013-02-19 07:41:00,
2013-02-19 00:46:00,10.4,-7.2,30.22,NNE,28,7.0,7.0,44,0.00,CLR,,0.00,WeatherDisplay:10.37,2013-02-19 07:46:00,
2013-02-19 00:51:00,10.4,-7.7,30.22,North,9,6.9,6.9,43,0.00,CLR,,0.00,WeatherDisplay:10.37,2013-02-19 07:51:00,
2013-02-19 00:56:00,10.5,-7.6,30.22,NNE,21,8.1,8.1,43,0.00,CLR,,0.00,WeatherDisplay:10.37,2013-02-19 07:56:00,
2013-02-19 01:01:00,10.5,-8.1,30.20,NNE,16,3.5,3.5,42,0.00,CLR,,0.00,WeatherDisplay:10.37,2013-02-19 08:01:00,
2013-02-19 01:06:00,10.4,-7.7,30.20,North,9,7.0,7.0,43,0.00,CLR,,0.00,WeatherDisplay:10.37,2013-02-19 08:06:00,
2013-02-19 01:11:00,10.4,-7.7,30.20,WNW,285,5.8,5.8,43,0.00,CLR,,0.00,WeatherDisplay:10.37,2013-02-19 08:11:00,
2013-02-19 01:16:00,10.7,-6.5,30.20,NE,39,3.5,3.5,45,0.00,CLR,,0.00,WeatherDisplay:10.37,2013-02-19 08:16:00,
2013-02-19 01:21:00,10.7,-7.4,30.20,North,351,4.6,4.6,43,0.00,CLR,,0.00,WeatherDisplay:10.37,2013-02-19 08:21:00,
2013-02-19 01:26:00,10.5,-7.2,30.20,North,5,5.0,5.0,44,0.00,CLR,,0.00,WeatherDisplay:10.37,2013-02-19 08:26:00,
2013-02-19 01:31:00,10.4,-6.8,30.22,NNE,26,5.0,5.0,45,0.00,CLR,,0.00,WeatherDisplay:10.37,2013-02-19 08:31:00,
2013-02-19 01:36:00,10.2,-6.5,30.22,NE,35,4.6,4.6,46,0.00,CLR,,0.00,WeatherDisplay:10.37,2013-02-19 08:36:00,
2013-02-19 01:41:00,10.2,-6.5,30.22,NNW,345,6.0,6.0,46,0.00,CLR,,0.00,WeatherDisplay:10.37,2013-02-19 08:41:00,
2013-02-19 01:46:00,9.7,-7.0,30.21,NNW,343,2.3,2.3,46,0.00,CLR,,0.00,WeatherDisplay:10.37,2013-02-19 08:46:00,
2013-02-19 01:51:00,9.5,-6.7,30.21,NE,35,1.2,0.0,47,0.00,CLR,,0.00,WeatherDisplay:10.37,2013-02-19 08:51:00,
2013-02-19 01:56:00,9.5,-6.7,30.21,North,1,2.0,2.0,47,0.00,CLR,,0.00,WeatherDisplay:10.37,2013-02-19 08:56:00,
2013-02-19 02:01:00,9.7,-6.5,30.21,North,358,4.6,4.6,47,0.00,CLR,,0.00,WeatherDisplay:10.37,2013-02-19 09:01:00,
2013-02-19 02:06:00,9.9,-6.3,30.21,North,1,2.3,2.3,47,0.00,CLR,,0.00,WeatherDisplay:10.37,2013-02-19 09:06:00,
2013-02-19 02:11:00,9.7,-6.5,30.21,NNE,15,3.5,3.5,47,0.00,CLR,,0.00,WeatherDisplay:10.37,2013-02-19 09:11:00,
2013-02-19 02:16:00,9.7,-6.5,30.20,North,354,5.8,5.8,47,0.00,CLR,,0.00,WeatherDisplay:10.37,2013-02-19 09:16:00,
2013-02-19 02:21:00,9.9,-6.3,30.20,North,350,1.2,1.2,47,0.00,CLR,,0.00,WeatherDisplay:10.37,2013-02-19 09:21:00,
2013-02-19 02:26:00,9.9,-6.3,30.20,North,350,3.5,3.5,47,0.00,CLR,,0.00,WeatherDisplay:10.37,2013-02-19 09:26:00,
2013-02-19 02:31:00,9.9,-6.8,30.20,NNE,16,2.3,2.3,46,0.00,CLR,,0.00,WeatherDisplay:10.37,2013-02-19 09:31:00,
2013-02-19 02:36:00,9.5,-7.2,30.20,NNE,16,2.3,2.3,46,0.00,CLR,,0.00,WeatherDisplay:10.37,2013-02-19 09:36:00,
2013-02-19 02:41:00,9.5,-6.3,30.20,NNE,32,4.6,4.6,48,0.00,CLR,,0.00,WeatherDisplay:10.37,2013-02-19 09:41:00,
2013-02-19 02:46:00,9.2,-6.1,30.21,ENE,60,1.2,0.0,49,0.00,CLR,,0.00,WeatherDisplay:10.37,2013-02-19 09:46:00,
2013-02-19 02:51:00,9.2,-5.7,30.21,SE,132,2.0,2.0,50,0.00,CLR,,0.00,WeatherDisplay:10.37,2013-02-19 09:51:00,
2013-02-19 02:56:00,9.5,-4.6,30.21,SSW,193,3.5,3.5,52,0.00,CLR,,0.00,WeatherDisplay:10.37,2013-02-19 09:56:00,
2013-02-19 03:01:00,9.7,-4.8,30.19,NW,319,3.5,3.5,51,0.00,CLR,,0.00,WeatherDisplay:10.37,2013-02-19 10:01:00,
2013-02-19 03:06:00,9.7,-4.8,30.19,NNW,343,3.5,3.5,51,0.00,CLR,,0.00,WeatherDisplay:10.37,2013-02-19 10:06:00,
2013-02-19 03:11:00,9.9,-4.6,30.19,NW,317,3.0,3.0,51,0.00,CLR,,0.00,WeatherDisplay:10.37,2013-02-19 10:11:00,
2013-02-19 03:16:00,10.4,-3.8,30.19,West,266,5.8,5.8,52,0.00,CLR,,0.00,WeatherDisplay:10.37,2013-02-19 10:16:00,
2013-02-19 03:22:00,10.7,-4.3,30.19,WSW,237,3.5,3.5,50,0.00,CLR,,0.00,WeatherDisplay:10.37,2013-02-19 10:22:00,
2013-02-19 03:27:00,10.7,-3.9,30.19,WSW,237,0.0,0.0,51,0.00,CLR,,0.00,WeatherDisplay:10.37,2013-02-19 10:27:00,
2013-02-19 03:32:00,10.4,-4.2,30.16,WSW,237,2.3,2.3,51,0.00,CLR,,0.00,WeatherDisplay:10.37,2013-02-19 10:32:00,
2013-02-19 03:37:00,10.0,-4.2,30.16,WSW,237,2.3,2.3,52,0.00,CLR,,0.00,WeatherDisplay:10.37,2013-02-19 10:37:00,
2013-02-19 03:42:00,9.9,-4.6,30.16,North,2,2.3,2.3,51,0.00,CLR,,0.00,WeatherDisplay:10.37,2013-02-19 10:42:00,
2013-02-19 03:47:00,9.9,-4.6,30.19,North,2,2.0,2.0,51,0.00,CLR,,0.00,WeatherDisplay:10.37,2013-02-19 10:47:00,
2013-02-19 03:52:00,9.9,-5.1,30.19,North,2,1.2,1.4,50,0.00,CLR,,0.00,WeatherDisplay:10.37,2013-02-19 10:52:00,
2013-02-19 03:57:00,9.9,-5.1,30.19,NNE,29,6.0,6.0,50,0.00,CLR,,0.00,WeatherDisplay:10.37,2013-02-19 10:57:00,
2013-02-19 04:02:00,10.0,-5.4,30.18,NNW,343,5.0,5.0,49,0.00,CLR,,0.00,WeatherDisplay:10.37,2013-02-19 11:02:00,
2013-02-19 04:07:00,10.4,-5.0,30.18,ENE,63,5.8,5.8,49,0.00,CLR,,0.00,WeatherDisplay:10.37,2013-02-19 11:07:00,
2013-02-19 04:12:00,11.2,-4.7,30.18,NE,45,12.7,12.7,48,0.00,CLR,,0.00,WeatherDisplay:10.37,2013-02-19 11:12:00,
2013-02-19 04:17:00,12.1,-4.8,30.18,ENE,73,3.5,3.5,46,0.00,CLR,,0.00,WeatherDisplay:10.37,2013-02-19 11:17:00,
2013-02-19 04:22:00,12.6,-3.9,30.18,NE,42,7.0,7.0,47,0.00,CLR,,0.00,WeatherDisplay:10.37,2013-02-19 11:22:00,
2013-02-19 04:27:00,12.6,-3.9,30.18,NE,46,6.9,6.9,47,0.00,CLR,,0.00,WeatherDisplay:10.37,2013-02-19 11:27:00,
2013-02-19 04:32:00,12.6,-3.4,30.15,NE,46,8.1,8.1,48,0.00,CLR,,0.00,WeatherDisplay:10.37,2013-02-19 11:32:00,
2013-02-19 04:37:00,12.9,-3.6,30.15,NNE,12,5.8,5.8,47,0.00,CLR,,0.00,WeatherDisplay:10.37,2013-02-19 11:37:00,
2013-02-19 04:42:00,12.8,-3.7,30.15,North,355,6.9,6.9,47,0.00,CLR,,0.00,WeatherDisplay:10.37,2013-02-19 11:42:00,
2013-02-19 04:47:00,12.8,-3.7,30.15,NNW,348,6.0,6.0,47,0.00,CLR,,0.00,WeatherDisplay:10.37,2013-02-19 11:47:00,
2013-02-19 04:52:00,12.9,-4.5,30.15,NNE,16,5.8,5.8,45,0.00,CLR,,0.00,WeatherDisplay:10.37,2013-02-19 11:52:00,
2013-02-19 04:57:00,13.1,-4.3,30.15,NNE,12,6.9,6.9,45,0.00,CLR,,0.00,WeatherDisplay:10.37,2013-02-19 11:57:00,
2013-02-19 05:02:00,13.6,-4.8,30.15,NE,35,8.1,8.1,43,0.00,CLR,,0.00,WeatherDisplay:10.37,2013-02-19 12:02:00,
2013-02-19 05:07:00,13.6,-4.8,30.15,North,8,6.9,6.9,43,0.00,CLR,,0.00,WeatherDisplay:10.37,2013-02-19 12:07:00,
2013-02-19 05:12:00,13.6,-4.8,30.15,North,351,8.1,8.1,43,0.00,CLR,,0.00,WeatherDisplay:10.37,2013-02-19 12:12:00,
2013-02-19 05:17:00,13.6,-5.3,30.16,NNE,29,3.5,3.5,42,0.00,CLR,,0.00,WeatherDisplay:10.37,2013-02-19 12:17:00,
2013-02-19 05:22:00,13.5,-5.9,30.16,NNE,18,5.0,5.0,41,0.00,CLR,,0.00,WeatherDisplay:10.37,2013-02-19 12:22:00,
2013-02-19 05:27:00,13.3,-6.1,30.16,North,7,5.8,5.8,41,0.00,CLR,,0.00,WeatherDisplay:10.37,2013-02-19 12:27:00,
2013-02-19 05:32:00,13.3,-6.1,30.17,North,1,6.9,6.9,41,0.00,CLR,,0.00,WeatherDisplay:10.37,2013-02-19 12:32:00,
2013-02-19 05:37:00,13.3,-6.1,30.17,NNW,348,5.8,5.8,41,0.00,CLR,,0.00,WeatherDisplay:10.37,2013-02-19 12:37:00,
2013-02-19 05:42:00,13.8,-7.2,30.17,North,0,8.0,8.0,38,0.00,CLR,,0.00,WeatherDisplay:10.37,2013-02-19 12:42:00,
2013-02-19 05:47:00,14.3,-7.3,30.16,WSW,245,4.6,4.6,37,0.00,CLR,,0.00,WeatherDisplay:10.37,2013-02-19 12:47:00,
2013-02-19 05:52:00,14.0,-5.4,30.16,SW,220,5.0,5.1,41,0.00,CLR,,0.00,WeatherDisplay:10.37,2013-02-19 12:52:00,
2013-02-19 05:57:00,14.0,-5.4,30.16,SW,232,4.6,4.6,41,0.00,CLR,,0.00,WeatherDisplay:10.37,2013-02-19 12:57:00,
2013-02-19 06:02:00,13.8,-5.6,30.17,ENE,57,6.0,6.0,41,0.00,CLR,,0.00,WeatherDisplay:10.37,2013-02-19 13:02:00,
2013-02-19 06:07:00,13.8,-6.6,30.17,SW,217,3.5,3.5,39,0.00,CLR,,0.00,WeatherDisplay:10.37,2013-02-19 13:07:00,
2013-02-19 06:12:00,13.8,-7.2,30.17,WNW,297,2.3,2.3,38,0.00,CLR,,0.00,WeatherDisplay:10.37,2013-02-19 13:12:00,
2013-02-19 06:17:00,13.5,-5.9,30.16,WSW,247,8.1,8.1,41,0.00,CLR,,0.00,WeatherDisplay:10.37,2013-02-19 13:17:00,
2013-02-19 06:22:00,13.6,-9.0,30.16,NNW,343,6.0,6.0,35,0.00,CLR,,0.00,WeatherDisplay:10.37,2013-02-19 13:22:00,
2013-02-19 06:27:00,14.0,-5.4,30.16,SW,225,3.0,3.0,41,0.00,CLR,,0.00,WeatherDisplay:10.37,2013-02-19 13:27:00,
2013-02-19 06:32:00,13.8,-7.7,30.16,SW,227,2.3,2.3,37,0.00,CLR,,0.00,WeatherDisplay:10.37,2013-02-19 13:32:00,
2013-02-19 06:37:00,13.8,-9.4,30.16,NW,313,4.6,4.6,34,0.00,CLR,,0.00,WeatherDisplay:10.37,2013-02-19 13:37:00,
2013-02-19 06:42:00,14.0,-11.8,30.16,NNW,331,5.8,5.8,30,0.00,CLR,,0.00,WeatherDisplay:10.37,2013-02-19 13:42:00,
2013-02-19 06:47:00,14.1,-9.8,30.16,West,261,4.6,4.6,33,0.00,CLR,,0.00,WeatherDisplay:10.37,2013-02-19 13:47:00,
2013-02-19 06:52:00,14.8,-15.6,30.16,WNW,302,4.6,4.6,24,0.00,CLR,,0.00,WeatherDisplay:10.37,2013-02-19 13:52:00,
2013-02-19 06:57:00,14.4,-14.3,30.16,NNW,327,5.8,5.8,26,0.00,CLR,,0.00,WeatherDisplay:10.37,2013-02-19 13:57:00,
2013-02-19 07:02:00,14.9,-15.5,30.16,NW,316,5.0,5.0,24,0.00,CLR,,0.00,WeatherDisplay:10.37,2013-02-19 14:02:00,
2013-02-19 07:07:00,15.2,-10.1,30.16,WNW,302,5.0,5.0,31,0.00,CLR,,0.00,WeatherDisplay:10.37,2013-02-19 14:07:00,
2013-02-19 07:12:00,18.0,-17.4,30.16,WNW,285,6.0,6.0,19,0.00,CLR,,0.00,WeatherDisplay:10.37,2013-02-19 14:12:00,
2013-02-19 07:17:00,21.3,-19.3,30.10,WNW,286,6.9,6.9,15,0.00,CLR,,0.00,WeatherDisplay:10.37,2013-02-19 14:17:00,
2013-02-19 07:22:00,22.4,-19.7,30.10,WNW,283,8.1,8.1,14,0.00,CLR,,0.00,WeatherDisplay:10.37,2013-02-19 14:22:00,
2013-02-19 07:27:00,24.2,-19.7,30.10,WNW,292,5.0,5.0,13,0.00,CLR,,0.00,WeatherDisplay:10.37,2013-02-19 14:27:00,
2013-02-19 07:32:00,25.0,-20.6,30.07,WNW,286,6.9,6.9,12,0.00,CLR,,0.00,WeatherDisplay:10.37,2013-02-19 14:32:00,
2013-02-19 07:37:00,25.7,-21.7,30.07,West,273,6.9,6.9,11,0.00,CLR,,0.00,WeatherDisplay:10.37,2013-02-19 14:37:00,
2013-02-19 07:42:00,26.1,-21.4,30.07,West,261,6.0,6.0,11,0.00,CLR,,0.00,WeatherDisplay:10.37,2013-02-19 14:42:00,
2013-02-19 07:47:00,26.4,-21.1,30.06,NNW,328,8.1,8.1,11,0.00,CLR,,0.00,WeatherDisplay:10.37,2013-02-19 14:47:00,
2013-02-19 07:52:00,25.7,-11.0,30.06,SSW,194,5.8,5.8,19,0.00,CLR,,0.00,WeatherDisplay:10.37,2013-02-19 14:52:00,
2013-02-19 07:57:00,24.5,-18.0,30.06,NNW,337,10.0,10.0,14,0.00,CLR,,0.00,WeatherDisplay:10.37,2013-02-19 14:57:00,
2013-02-19 08:02:00,25.1,-19.0,30.08,West,265,10.4,10.4,13,0.00,CLR,,0.00,WeatherDisplay:10.37,2013-02-19 15:02:00,
2013-02-19 08:07:00,25.4,-20.3,30.08,WNW,293,5.8,5.8,12,0.00,CLR,,0.00,WeatherDisplay:10.37,2013-02-19 15:07:00,
2013-02-19 08:12:00,25.8,-20.0,30.08,West,268,8.1,8.1,12,0.00,CLR,,0.00,WeatherDisplay:10.37,2013-02-19 15:12:00,
2013-02-19 08:17:00,26.0,-18.2,30.06,SW,223,6.0,6.0,13,0.00,CLR,,0.00,WeatherDisplay:10.37,2013-02-19 15:17:00,
2013-02-19 08:22:00,25.6,-18.6,30.06,WSW,247,6.9,6.9,13,0.00,CLR,,0.00,WeatherDisplay:10.37,2013-02-19 15:22:00,
2013-02-19 08:27:00,27.0,-20.7,30.06,West,259,11.5,11.5,11,0.00,CLR,,0.00,WeatherDisplay:10.37,2013-02-19 15:27:00,
2013-02-19 08:32:00,27.8,-21.9,30.05,WSW,258,8.1,8.1,10,0.00,CLR,,0.00,WeatherDisplay:10.37,2013-02-19 15:32:00,
2013-02-19 08:37:00,28.4,-21.4,30.05,West,265,11.5,11.5,10,0.00,CLR,,0.00,WeatherDisplay:10.37,2013-02-19 15:37:00,
2013-02-19 08:42:00,28.2,-21.6,30.05,West,264,3.5,3.6,10,0.00,CLR,,0.00,WeatherDisplay:10.37,2013-02-19 15:42:00,
2013-02-19 08:47:00,28.4,-21.4,30.05,WNW,283,8.1,8.1,10,0.00,CLR,,0.00,WeatherDisplay:10.37,2013-02-19 15:47:00,
2013-02-19 08:52:00,28.1,-21.6,30.05,WSW,241,8.1,8.1,10,0.00,CLR,,0.00,WeatherDisplay:10.37,2013-02-19 15:52:00,
2013-02-19 08:57:00,28.4,-21.4,30.05,WSW,251,11.5,11.5,10,0.00,CLR,,0.00,WeatherDisplay:10.37,2013-02-19 15:57:00,
2013-02-19 09:02:00,28.2,-21.6,30.05,West,278,5.8,5.8,10,0.00,CLR,,0.00,WeatherDisplay:10.37,2013-02-19 16:02:00,
2013-02-19 09:07:00,27.9,-18.3,30.05,West,268,6.9,6.9,12,0.00,CLR,,0.00,WeatherDisplay:10.37,2013-02-19 16:07:00,
2013-02-19 09:12:00,26.9,-12.2,30.05,West,279,3.5,3.5,17,0.00,CLR,,0.00,WeatherDisplay:10.37,2013-02-19 16:12:00,
2013-02-19 09:17:00,25.8,-18.4,30.13,West,280,4.6,4.6,13,0.00,CLR,,0.00,WeatherDisplay:10.37,2013-02-19 16:17:00,
2013-02-19 09:22:00,27.3,-20.4,30.13,West,266,5.8,5.8,11,0.00,CLR,,0.00,WeatherDisplay:10.37,2013-02-19 16:22:00,
2013-02-19 09:27:00,28.8,-21.1,30.13,West,265,4.6,4.6,10,0.00,CLR,,0.00,WeatherDisplay:10.37,2013-02-19 16:27:00,
2013-02-19 09:32:00,29.4,-20.6,30.11,West,275,5.0,5.0,10,0.00,CLR,,0.00,WeatherDisplay:10.37,2013-02-19 16:32:00,
2013-02-19 09:37:00,30.0,-20.1,30.11,WNW,293,6.9,6.9,10,0.00,CLR,,0.00,WeatherDisplay:10.37,2013-02-19 16:37:00,
2013-02-19 09:42:00,30.6,-21.7,30.11,WNW,292,5.8,5.8,9,0.00,CLR,,0.00,WeatherDisplay:10.37,2013-02-19 16:42:00,
2013-02-19 09:47:00,31.2,-21.2,30.09,NW,317,5.8,5.8,9,0.00,CLR,,0.00,WeatherDisplay:10.37,2013-02-19 16:47:00,
2013-02-19 09:52:00,30.9,-11.4,30.09,SE,139,2.3,2.3,15,0.00,CLR,,0.00,WeatherDisplay:10.37,2013-02-19 16:52:00,
2013-02-19 09:57:00,30.1,-16.5,30.09,SE,139,3.5,3.5,12,0.00,CLR,,0.00,WeatherDisplay:10.37,2013-02-19 16:57:00,
2013-02-19 10:02:00,30.1,-13.5,30.08,SE,139,2.3,2.3,14,0.00,CLR,,0.00,WeatherDisplay:10.37,2013-02-19 17:02:00,
2013-02-19 10:07:00,31.0,-19.4,30.08,South,172,3.5,3.5,10,0.00,CLR,,0.00,WeatherDisplay:10.37,2013-02-19 17:07:00,
2013-02-19 10:12:00,32.4,-20.3,30.08,South,172,1.2,1.2,9,0.00,CLR,,0.00,WeatherDisplay:10.37,2013-02-19 17:12:00,
2013-02-19 10:17:00,34.1,-19.0,30.07,NNE,25,1.2,1.2,9,0.00,CLR,,0.00,WeatherDisplay:10.37,2013-02-19 17:17:00,
2013-02-19 10:22:00,36.0,-19.8,30.07,ESE,105,2.3,2.3,8,0.00,CLR,,0.00,WeatherDisplay:10.37,2013-02-19 17:22:00,
2013-02-19 10:27:00,36.2,-19.7,30.07,SE,128,3.5,3.5,8,0.00,CLR,,0.00,WeatherDisplay:10.37,2013-02-19 17:27:00,
2013-02-19 10:32:00,35.5,-20.2,30.03,SE,139,3.5,3.5,8,0.00,CLR,,0.00,WeatherDisplay:10.37,2013-02-19 17:32:00,
2013-02-19 10:37:00,34.9,-20.6,30.03,SSW,194,4.6,4.6,8,0.00,CLR,,0.00,WeatherDisplay:10.37,2013-02-19 17:37:00,
2013-02-19 10:42:00,34.9,-14.4,30.03,SSE,153,3.5,3.5,11,0.00,CLR,,0.00,WeatherDisplay:10.37,2013-02-19 17:42:00,
2013-02-19 10:47:00,34.9,-14.4,30.05,SSE,153,1.2,1.2,11,0.00,CLR,,0.00,WeatherDisplay:10.37,2013-02-19 17:47:00,
2013-02-19 10:52:00,35.2,-14.2,30.05,SE,145,1.2,0.0,11,0.00,CLR,,0.00,WeatherDisplay:10.37,2013-02-19 17:52:00,
2013-02-19 10:57:00,35.8,-13.7,30.05,SE,145,1.2,1.2,11,0.00,CLR,,0.00,WeatherDisplay:10.37,2013-02-19 17:57:00,
2013-02-19 11:02:00,36.5,-17.1,30.02,SE,145,2.3,2.3,9,0.00,CLR,,0.00,WeatherDisplay:10.37,2013-02-19 18:02:00,
2013-02-19 11:07:00,37.3,-16.5,30.02,WSW,252,2.3,2.3,9,0.00,CLR,,0.00,WeatherDisplay:10.37,2013-02-19 18:07:00,
2013-02-19 11:12:00,37.9,-18.4,30.02,WSW,254,1.2,0.0,8,0.00,CLR,,0.00,WeatherDisplay:10.37,2013-02-19 18:12:00,
2013-02-19 11:17:00,37.8,-14.0,30.02,SE,128,3.5,3.5,10,0.00,CLR,,0.00,WeatherDisplay:10.37,2013-02-19 18:17:00,
2013-02-19 11:22:00,37.2,-14.5,30.02,ESE,118,3.5,3.5,10,0.00,CLR,,0.00,WeatherDisplay:10.37,2013-02-19 18:22:00,
2013-02-19 11:27:00,36.9,-14.8,30.02,SE,127,3.5,3.5,10,0.00,CLR,,0.00,WeatherDisplay:10.37,2013-02-19 18:27:00,
2013-02-19 11:32:00,36.9,-16.8,30.01,ESE,121,4.6,4.6,9,0.00,CLR,,0.00,WeatherDisplay:10.37,2013-02-19 18:32:00,
2013-02-19 11:37:00,36.6,-15.0,30.01,ESE,105,4.6,4.6,10,0.00,CLR,,0.00,WeatherDisplay:10.37,2013-02-19 18:37:00,
2013-02-19 11:42:00,36.6,-13.1,30.01,ESE,110,3.5,3.5,11,0.00,CLR,,0.00,WeatherDisplay:10.37,2013-02-19 18:42:00,
2013-02-19 11:47:00,36.9,-14.8,30.00,ESE,122,1.2,0.0,10,0.00,CLR,,0.00,WeatherDisplay:10.37,2013-02-19 18:47:00,
2013-02-19 11:52:00,37.2,-14.5,30.00,ESE,117,3.5,3.5,10,0.00,CLR,,0.00,WeatherDisplay:10.37,2013-02-19 18:52:00,
2013-02-19 11:57:00,38.6,-13.4,30.00,ENE,74,8.0,8.0,10,0.00,CLR,,0.00,WeatherDisplay:10.37,2013-02-19 18:57:00,
2013-02-19 12:02:00,39.1,-15.1,29.97,ESE,121,5.8,5.8,9,0.00,CLR,,0.00,WeatherDisplay:10.37,2013-02-19 19:02:00,
2013-02-19 12:07:00,40.1,-12.3,29.97,NE,38,8.1,8.1,10,0.00,CLR,,0.00,WeatherDisplay:10.37,2013-02-19 19:07:00,
2013-02-19 12:12:00,42.1,-8.8,29.97,NE,48,7.0,7.0,11,0.00,CLR,,0.00,WeatherDisplay:10.37,2013-02-19 19:12:00,
2013-02-19 12:17:00,43.6,-9.5,29.94,ENE,63,5.8,5.8,10,0.00,CLR,,0.00,WeatherDisplay:10.37,2013-02-19 19:17:00,
2013-02-19 12:22:00,43.8,-9.4,29.94,ESE,114,4.6,4.6,10,0.00,CLR,,0.00,WeatherDisplay:10.37,2013-02-19 19:22:00,
2013-02-19 12:27:00,42.8,-12.3,29.94,ENE,76,4.6,4.6,9,0.00,CLR,,0.00,WeatherDisplay:10.37,2013-02-19 19:27:00,
2013-02-19 12:32:00,42.6,-10.3,29.93,East,97,5.8,5.8,10,0.00,CLR,,0.00,WeatherDisplay:10.37,2013-02-19 19:32:00,
2013-02-19 12:37:00,43.1,-12.0,29.93,East,81,6.9,6.9,9,0.00,CLR,,0.00,WeatherDisplay:10.37,2013-02-19 19:37:00,
2013-02-19 12:42:00,43.6,-11.7,29.93,ENE,72,6.9,6.9,9,0.00,CLR,,0.00,WeatherDisplay:10.37,2013-02-19 19:42:00,